createdAt,value
2019-05-09T00:02:03.441Z,10.51
2019-05-09T00:06:58.789Z,10.56
2019-05-09T00:11:55.024Z,10.49
2019-05-09T00:16:53.129Z,10.51
2019-05-09T00:21:48.180Z,10.49
2019-05-09T00:26:44.343Z,10.51
2019-05-09T00:31:40.160Z,10.49
2019-05-09T00:36:37.137Z,10.56
2019-05-09T00:41:33.145Z,10.44
2019-05-09T00:46:29.981Z,10.48
2019-05-09T00:51:25.392Z,10.44
2019-05-09T00:56:23.999Z,10.49
2019-05-09T01:01:20.340Z,10.40
2019-05-09T01:06:16.920Z,10.42
2019-05-09T01:11:15.592Z,10.46
2019-05-09T01:16:10.442Z,10.30
2019-05-09T01:21:06.060Z,10.26
2019-05-09T01:26:03.876Z,10.30
2019-05-09T01:31:03.763Z,10.31
2019-05-09T01:35:58.946Z,10.26
2019-05-09T01:40:55.725Z,10.22
2019-05-09T01:45:51.170Z,10.33
2019-05-09T01:50:46.992Z,10.26
2019-05-09T01:55:43.272Z,10.30
2019-05-09T02:00:39.632Z,10.28
2019-05-09T02:05:35.281Z,10.34
2019-05-09T02:10:31.073Z,10.33
2019-05-09T02:15:27.089Z,10.30
2019-05-09T02:20:24.251Z,10.25
2019-05-09T02:25:19.405Z,10.22
2019-05-09T02:30:15.774Z,10.12
2019-05-09T02:35:11.513Z," 9.98"
2019-05-09T02:40:09.807Z," 9.94"
2019-05-09T02:45:08.169Z," 9.83"
2019-05-09T02:50:03.183Z," 9.77"
2019-05-09T02:54:59.718Z," 9.77"
2019-05-09T02:59:55.532Z," 9.69"
2019-05-09T03:04:50.963Z," 9.64"
2019-05-09T03:09:48.000Z," 9.68"
2019-05-09T03:14:44.598Z," 9.51"
2019-05-09T03:19:40.448Z," 9.54"
2019-05-09T03:24:39.169Z," 9.47"
2019-05-09T03:29:34.121Z," 9.48"
2019-05-09T03:34:30.708Z," 9.50"
2019-05-09T03:39:27.631Z," 9.48"
2019-05-09T03:44:22.772Z," 9.48"
2019-05-09T03:49:19.117Z," 9.39"
2019-05-09T03:54:14.571Z," 9.21"
2019-05-09T03:59:10.202Z," 9.34"
2019-05-09T04:04:08.587Z," 9.22"
2019-05-09T04:09:03.883Z," 9.25"
2019-05-09T04:13:59.586Z," 9.14"
2019-05-09T04:18:58.091Z," 9.22"
2019-05-09T04:23:53.224Z," 9.18"
2019-05-09T04:28:50.028Z," 9.22"
2019-05-09T04:33:47.342Z," 9.23"
2019-05-09T04:38:43.225Z," 9.86"
2019-05-09T04:43:39.725Z,10.31
2019-05-09T04:48:37.558Z,10.31
2019-05-09T04:53:33.130Z,10.40
2019-05-09T04:58:29.523Z,10.23
2019-05-09T05:03:24.775Z,10.05
2019-05-09T05:08:20.596Z," 9.99"
2019-05-09T05:13:26.499Z," 9.97"
2019-05-09T05:18:17.422Z,10.05
2019-05-09T05:23:18.155Z,10.17
2019-05-09T05:28:13.279Z,10.26
2019-05-09T05:33:09.254Z,10.33
2019-05-09T05:38:05.012Z,10.41
2019-05-09T05:43:01.165Z,10.40
2019-05-09T05:47:57.584Z,10.48
2019-05-09T05:52:53.336Z,10.74
2019-05-09T05:57:49.376Z,10.84
2019-05-09T06:02:47.707Z,10.89
2019-05-09T06:07:42.997Z,10.76
2019-05-09T06:12:38.552Z,10.89
2019-05-09T06:17:34.288Z,10.93
2019-05-09T06:22:30.787Z,11.02
2019-05-09T06:27:27.506Z,11.04
2019-05-09T06:32:24.237Z,11.25
2019-05-09T06:37:20.890Z,11.35
2019-05-09T06:42:18.066Z,11.45
2019-05-09T06:47:13.704Z,11.57
2019-05-09T06:52:09.872Z,11.57
2019-05-09T06:57:08.085Z,11.62
2019-05-09T07:02:04.789Z,11.66
2019-05-09T07:07:00.402Z,11.68
2019-05-09T07:11:58.623Z,11.83
2019-05-09T07:16:54.045Z,11.91
2019-05-09T07:21:51.183Z,12.00
2019-05-09T07:26:47.878Z,12.28
2019-05-09T07:31:44.578Z,12.40
2019-05-09T07:36:41.390Z,12.70
2019-05-09T07:41:38.652Z,12.95
2019-05-09T07:46:34.747Z,13.13
2019-05-09T07:51:32.462Z,13.37
2019-05-09T07:56:28.720Z,13.47
2019-05-09T08:01:27.830Z,13.85
2019-05-09T08:06:23.276Z,14.00
2019-05-09T08:11:20.293Z,14.40
2019-05-09T08:16:18.620Z,15.14
2019-05-09T08:21:17.864Z,15.47
2019-05-09T08:26:14.677Z,15.84
2019-05-09T08:31:10.222Z,15.95
2019-05-09T08:36:08.367Z,15.75
2019-05-09T08:41:04.480Z,16.00
2019-05-09T08:46:00.697Z,15.65
2019-05-09T08:50:58.298Z,15.51
2019-05-09T08:55:53.458Z,15.73
2019-05-09T09:00:50.009Z,15.88
2019-05-09T09:05:48.371Z,16.04
2019-05-09T09:10:43.620Z,16.33
2019-05-09T09:16:05.651Z,16.81
2019-05-09T09:20:42.199Z,17.59
2019-05-09T09:25:39.109Z,17.51
2019-05-09T09:30:33.776Z,16.72
2019-05-09T09:35:29.393Z,16.10
2019-05-09T09:40:24.521Z,15.86
2019-05-09T09:45:20.173Z,15.75
2019-05-09T09:50:17.715Z,15.72
2019-05-09T09:55:13.133Z,15.92
2019-05-09T10:00:09.055Z,15.77
2019-05-09T10:05:07.710Z,15.98
2019-05-09T10:10:07.725Z,16.57
2019-05-09T10:15:08.201Z,16.64
2019-05-09T10:20:04.175Z,17.05
2019-05-09T10:25:00.915Z,16.93
2019-05-09T10:29:57.535Z,16.74
2019-05-09T10:34:53.613Z,16.60
2019-05-09T10:39:49.339Z,16.24
2019-05-09T10:44:44.974Z,16.17
2019-05-09T10:49:43.631Z,16.72
2019-05-09T10:54:38.512Z,16.61
2019-05-09T10:59:37.686Z,17.04
2019-05-09T11:04:32.923Z,17.23
2019-05-09T11:09:29.110Z,17.12
2019-05-09T11:14:36.016Z,17.42
2019-05-09T11:19:25.176Z,17.82
2019-05-09T11:24:19.571Z,17.45
2019-05-09T11:29:15.080Z,17.06
2019-05-09T11:34:11.540Z,17.20
2019-05-09T11:39:10.974Z,17.59
2019-05-09T11:44:08.212Z,17.44
2019-05-09T11:49:03.312Z,17.27
2019-05-09T11:53:58.981Z,17.22
2019-05-09T11:58:55.014Z,17.39
2019-05-09T12:03:52.383Z,17.42
2019-05-09T12:08:48.408Z,17.30
2019-05-09T12:13:44.054Z,16.96
2019-05-09T12:18:39.912Z,16.79
2019-05-09T12:23:37.866Z,17.15
2019-05-09T12:28:33.799Z,16.94
2019-05-09T12:33:33.034Z,17.11
2019-05-09T12:38:29.607Z,17.39
2019-05-09T12:43:25.123Z,17.65
2019-05-09T12:48:21.044Z,17.51
2019-05-09T12:53:18.930Z,17.68
2019-05-09T12:58:14.348Z,17.63
2019-05-09T13:03:11.264Z,17.56
2019-05-09T13:08:10.196Z,17.52
2019-05-09T13:13:08.338Z,17.45
2019-05-09T13:18:03.696Z,17.63
2019-05-09T13:22:59.868Z,17.46
2019-05-09T13:27:58.255Z,17.41
2019-05-09T13:32:54.827Z,17.57
2019-05-09T13:37:50.538Z,17.65
2019-05-09T13:42:49.106Z,17.63
2019-05-09T13:47:44.697Z,17.68
2019-05-09T13:52:40.920Z,17.63
2019-05-09T13:57:36.630Z,17.60
2019-05-09T14:02:32.573Z,17.49
2019-05-09T14:07:28.586Z,17.41
2019-05-09T14:12:24.312Z,17.11
2019-05-09T14:17:39.681Z,16.76
2019-05-09T14:22:18.638Z,16.58
2019-05-09T14:27:14.563Z,16.39
2019-05-09T14:32:10.264Z,16.12
2019-05-09T14:37:09.427Z,16.04
2019-05-09T14:42:05.601Z,16.00
2019-05-09T14:47:01.801Z,16.01
2019-05-09T14:51:58.056Z,16.08
2019-05-09T14:56:55.039Z,16.01
2019-05-09T15:01:52.040Z,16.13
2019-05-09T15:06:48.981Z,16.17
2019-05-09T15:11:44.949Z,16.32
2019-05-09T15:16:40.941Z,16.41
2019-05-09T15:21:38.302Z,16.56
2019-05-09T15:26:33.915Z,16.50
2019-05-09T15:31:29.880Z,16.54
2019-05-09T15:36:26.288Z,16.57
2019-05-09T15:41:22.323Z,16.51
2019-05-09T15:46:18.701Z,16.51
2019-05-09T15:51:15.049Z,16.61
2019-05-09T15:56:10.789Z,16.58
2019-05-09T16:01:08.160Z,16.60
2019-05-09T16:06:04.057Z,16.61
2019-05-09T16:10:59.907Z,16.64
2019-05-09T16:15:57.558Z,16.75
2019-05-09T16:20:53.682Z,16.69
2019-05-09T16:25:49.519Z,16.69
2019-05-09T16:30:45.499Z,16.87
2019-05-09T16:35:41.663Z,17.06
2019-05-09T16:40:38.637Z,17.24
2019-05-09T16:45:34.457Z,17.23
2019-05-09T16:50:31.242Z,17.15
2019-05-09T16:55:31.182Z,16.94
2019-05-09T17:00:27.454Z,16.89
2019-05-09T17:05:22.521Z,16.69
2019-05-09T17:10:18.090Z,16.41
2019-05-09T17:15:14.691Z,16.26
2019-05-09T17:20:11.006Z,16.02
2019-05-09T17:25:07.955Z,16.02
2019-05-09T17:30:03.210Z,15.94
2019-05-09T17:34:59.421Z,15.95
2019-05-09T17:39:55.398Z,15.91
2019-05-09T17:44:52.547Z,16.04
2019-05-09T17:49:48.444Z,16.02
2019-05-09T17:54:45.053Z,16.05
2019-05-09T17:59:40.887Z,16.04
2019-05-09T18:04:37.978Z,15.98
2019-05-09T18:09:33.761Z,15.98
2019-05-09T18:14:29.933Z,15.95
2019-05-09T18:19:29.384Z,15.95
2019-05-09T18:24:24.586Z,15.94
2019-05-09T18:29:21.282Z,15.84
2019-05-09T18:34:18.601Z,15.68
2019-05-09T18:39:13.941Z,15.54
2019-05-09T18:44:10.210Z,15.43
2019-05-09T18:49:07.070Z,15.31
2019-05-09T18:54:02.458Z,15.18
2019-05-09T18:58:58.357Z,15.09
2019-05-09T19:03:54.135Z,15.02
2019-05-09T19:08:50.925Z,14.99
2019-05-09T19:13:46.477Z,14.88
2019-05-09T19:18:43.520Z,14.85
2019-05-09T19:23:39.475Z,14.85
2019-05-09T19:28:35.328Z,14.82
2019-05-09T19:33:31.064Z,14.62
2019-05-09T19:38:27.025Z,14.70
2019-05-09T19:43:22.792Z,14.47
2019-05-09T19:48:18.753Z,14.48
2019-05-09T19:53:14.764Z,14.48
2019-05-09T19:58:11.004Z,14.32
2019-05-09T20:03:06.768Z,14.30
2019-05-09T20:08:02.622Z,14.17
2019-05-09T20:12:58.576Z,14.33
2019-05-09T20:17:55.466Z,14.44
2019-05-09T20:22:53.339Z,14.59
2019-05-09T20:27:50.474Z,14.55
2019-05-09T20:32:46.972Z,14.35
2019-05-09T20:37:43.072Z,14.18
2019-05-09T20:42:38.794Z,13.95
2019-05-09T20:47:34.481Z,13.90
2019-05-09T20:52:30.489Z,13.85
2019-05-09T20:57:27.337Z,13.77
2019-05-09T21:02:23.259Z,13.81
2019-05-09T21:07:19.413Z,13.71
2019-05-09T21:12:15.142Z,13.75
2019-05-09T21:17:10.989Z,13.74
2019-05-09T21:22:06.983Z,13.67
2019-05-09T21:27:02.758Z,13.71
2019-05-09T21:31:59.380Z,13.71
2019-05-09T21:36:54.916Z,13.67
2019-05-09T21:41:51.364Z,13.68
2019-05-09T21:46:47.279Z,13.70
2019-05-09T21:51:43.029Z,13.79
2019-05-09T21:56:38.933Z,13.86
2019-05-09T22:01:34.693Z,13.87
2019-05-09T22:06:31.581Z,13.79
2019-05-09T22:11:27.120Z,13.77
2019-05-09T22:16:24.015Z,13.65
2019-05-09T22:21:19.754Z,13.54
2019-05-09T22:26:15.361Z,13.52
2019-05-09T22:31:11.515Z,13.59
2019-05-09T22:36:07.461Z,13.39
2019-05-09T22:41:03.239Z,13.42
2019-05-09T22:45:59.230Z,13.22
2019-05-09T22:50:55.134Z,13.23
2019-05-09T22:55:50.901Z,13.20
2019-05-09T23:00:46.717Z,13.22
2019-05-09T23:05:42.538Z,13.31
2019-05-09T23:10:39.555Z,13.16
2019-05-09T23:15:35.199Z,13.22
2019-05-09T23:20:30.883Z,13.20
2019-05-09T23:25:26.370Z,13.04
2019-05-09T23:30:22.247Z,13.01
2019-05-09T23:35:18.104Z,13.00
2019-05-09T23:40:15.251Z,12.90
2019-05-09T23:45:10.734Z,12.82
2019-05-09T23:50:06.452Z,12.76
2019-05-09T23:55:02.125Z,12.82
2019-05-09T23:59:57.967Z,12.80
